Time;durP1;ratioP1;P1;durP2;ratioP2;P2;SDS_P1;SDS_P2;PMS_P1;PMS_P2;Temp;Humidity;BMP_temperature;BMP_pressure;BME280_temperature;BME280_humidity;BME280_pressure;Samples;Min_cycle;Max_cycle;Signal;HPM_P1;HPM_P2
2021/03/13 00:01:18;;;;;;;2.35;0.55;;;;;;;23.01;41.29;97667.44;5014285;28;20208;-49
2021/03/13 00:03:45;;;;;;;0.90;0.40;;;;;;;22.96;41.66;97675.97;5014029;28;20243;-48
2021/03/13 00:06:11;;;;;;;4.15;0.47;;;;;;;22.97;42.42;97674.97;5014263;28;20327;-43
2021/03/13 00:08:38;;;;;;;0.60;0.40;;;;;;;22.92;42.19;97691.50;5013943;28;20522;-51
2021/03/13 00:11:07;;;;;;;1.95;0.73;;;;;;;22.90;41.77;97704.19;5014481;28;20196;-50
2021/03/13 00:13:33;;;;;;;4.00;0.60;;;;;;;22.86;41.91;97697.56;5013732;28;20211;-44
2021/03/13 00:16:00;;;;;;;0.63;0.40;;;;;;;22.83;42.47;97697.94;5013769;28;20275;-45
2021/03/13 00:18:26;;;;;;;1.73;0.57;;;;;;;22.85;42.19;97695.91;5014091;28;20240;-48
2021/03/13 00:20:53;;;;;;;0.95;0.50;;;;;;;22.84;42.17;97683.59;5014352;28;20300;-54
2021/03/13 00:23:19;;;;;;;2.42;0.52;;;;;;;22.80;42.42;97674.31;5014364;28;20358;-54
2021/03/13 00:25:45;;;;;;;1.70;0.55;;;;;;;22.76;42.57;97674.84;5013661;28;20298;-49
2021/03/13 00:28:13;;;;;;;1.65;0.45;;;;;;;22.72;42.20;97677.06;5014085;28;20589;-54
2021/03/13 00:30:41;;;;;;;1.70;0.38;;;;;;;22.75;42.19;97676.69;5014064;28;20255;-47
2021/03/13 00:33:10;;;;;;;0.90;0.40;;;;;;;22.70;42.50;97687.06;5014003;28;20287;-51
2021/03/13 00:35:37;;;;;;;1.58;0.60;;;;;;;22.70;42.40;97677.22;5013598;28;20740;-46
2021/03/13 00:38:04;;;;;;;1.00;0.60;;;;;;;22.68;42.07;97665.09;5013354;28;20617;-47
2021/03/13 00:40:32;;;;;;;1.10;0.55;;;;;;;22.66;42.81;97664.44;5013158;28;20311;-50
2021/03/13 00:42:59;;;;;;;0.85;0.50;;;;;;;22.65;42.36;97657.44;5013851;28;20303;-52
2021/03/13 00:45:27;;;;;;;2.42;0.40;;;;;;;22.59;42.28;97659.00;5013151;28;20327;-50
2021/03/13 00:47:53;;;;;;;2.92;0.50;;;;;;;22.59;42.57;97648.34;5013338;28;20208;-46
2021/03/13 00:50:23;;;;;;;1.23;0.60;;;;;;;22.59;42.26;97648.34;5013416;28;20323;-45
2021/03/13 00:52:49;;;;;;;0.60;0.40;;;;;;;22.59;42.88;97653.69;5013195;28;20211;-50
2021/03/13 00:55:16;;;;;;;3.03;0.32;;;;;;;22.54;42.70;97646.22;5013272;28;20315;-48
2021/03/13 00:57:43;;;;;;;3.20;0.50;;;;;;;22.56;42.01;97647.91;5012998;28;20266;-47
2021/03/13 01:00:12;;;;;;;2.22;0.75;;;;;;;22.49;43.10;97642.47;5012882;28;20216;-51
2021/03/13 01:02:39;;;;;;;1.30;0.50;;;;;;;22.48;42.46;97646.13;5012826;28;20678;-50
2021/03/13 01:05:07;;;;;;;3.80;0.70;;;;;;;22.46;42.75;97664.94;5012675;28;20229;-45
2021/03/13 01:07:34;;;;;;;1.80;0.50;;;;;;;22.46;42.52;97667.59;5013052;28;20205;-49
2021/03/13 01:10:01;;;;;;;1.75;0.50;;;;;;;22.47;42.52;97649.81;5012745;28;20308;-46
2021/03/13 01:12:27;;;;;;;1.25;0.50;;;;;;;22.45;42.82;97636.66;5012474;28;20316;-46
2021/03/13 01:14:53;;;;;;;3.83;0.40;;;;;;;22.45;43.06;97598.53;5012537;28;20303;-49
2021/03/13 01:17:19;;;;;;;1.50;0.40;;;;;;;22.47;42.59;97600.03;5012999;28;20527;-44
2021/03/13 01:19:46;;;;;;;1.85;0.50;;;;;;;22.44;42.40;97602.22;5012426;28;20750;-52
2021/03/13 01:22:13;;;;;;;0.95;0.40;;;;;;;22.43;43.37;97590.75;5012473;28;20373;-50
2021/03/13 01:24:40;;;;;;;0.68;0.45;;;;;;;22.42;43.00;97590.94;5012429;28;20319;-52
2021/03/13 01:27:08;;;;;;;1.77;0.50;;;;;;;22.42;42.75;97582.94;5012385;28;20200;-51
2021/03/13 01:29:34;;;;;;;1.20;0.50;;;;;;;22.39;43.25;97583.28;5012633;28;20223;-53
2021/03/13 01:32:03;;;;;;;1.38;0.40;;;;;;;22.38;43.05;97582.44;5012552;28;20295;-48
2021/03/13 01:34:30;;;;;;;1.35;0.50;;;;;;;22.34;43.04;97576.66;5012091;28;20205;-47
2021/03/13 01:36:58;;;;;;;2.42;0.60;;;;;;;22.34;43.41;97576.66;5013084;28;20633;-44
2021/03/13 01:39:24;;;;;;;0.50;0.32;;;;;;;22.34;43.07;97567.84;5012179;28;20205;-53
2021/03/13 01:41:50;;;;;;;3.50;0.63;;;;;;;22.32;43.45;97570.69;5012039;28;20302;-49
2021/03/13 01:44:17;;;;;;;1.42;0.47;;;;;;;22.34;43.59;97573.19;5013062;28;20584;-44
2021/03/13 01:46:43;;;;;;;1.10;0.60;;;;;;;22.33;43.34;97574.19;5012783;28;20311;-46
2021/03/13 01:49:17;;;;;;;1.23;0.80;;;;;;;22.31;43.44;97553.06;5012858;28;20235;-49
2021/03/13 01:51:43;;;;;;;0.73;0.50;;;;;;;22.30;43.45;97553.22;5013218;28;20231;-44
2021/03/13 01:54:10;;;;;;;0.80;0.57;;;;;;;22.27;42.88;97548.25;5012175;28;20240;-48
2021/03/13 01:56:39;;;;;;;1.20;0.50;;;;;;;22.26;43.92;97543.94;5012786;28;20256;-46
2021/03/13 01:59:05;;;;;;;0.45;0.40;;;;;;;22.27;43.59;97527.78;5012314;28;20303;-52
2021/03/13 02:01:31;;;;;;;0.75;0.50;;;;;;;22.24;43.48;97524.66;5011990;28;20632;-45
2021/03/13 02:03:58;;;;;;;1.35;0.57;;;;;;;22.22;43.88;97514.19;5012366;28;20239;-47
2021/03/13 02:06:24;;;;;;;0.77;0.35;;;;;;;22.21;43.35;97511.72;5011799;28;20397;-49
2021/03/13 02:09:01;;;;;;;2.28;0.70;;;;;;;22.16;43.66;97513.06;5011562;28;20612;-47
2021/03/13 02:11:33;;;;;;;1.73;0.50;;;;;;;22.17;43.17;97504.09;5011572;28;20585;-49
2021/03/13 02:14:11;;;;;;;0.75;0.32;;;;;;;22.15;43.44;97498.13;5012130;28;20208;-52
2021/03/13 02:16:43;;;;;;;1.73;0.47;;;;;;;22.14;43.82;97491.13;5011528;28;20720;-46
2021/03/13 02:19:30;;;;;;;0.65;0.32;;;;;;;22.11;43.35;97486.16;5011782;28;20193;-51
2021/03/13 02:22:01;;;;;;;4.05;0.68;;;;;;;22.13;43.86;97484.16;5012927;28;20272;-49
2021/03/13 02:24:41;;;;;;;0.75;0.47;;;;;;;22.12;43.79;97482.50;5012225;28;20212;-48
2021/03/13 02:27:12;;;;;;;2.63;0.60;;;;;;;22.12;43.72;97477.19;5012158;28;20200;-46
2021/03/13 02:29:48;;;;;;;2.25;0.70;;;;;;;22.10;43.32;97487.19;5011855;28;20696;-54
2021/03/13 02:32:23;;;;;;;1.55;0.68;;;;;;;22.09;42.93;97480.19;5012648;28;20555;-47
2021/03/13 02:34:54;;;;;;;0.68;0.40;;;;;;;22.08;43.78;97483.88;5012399;28;20180;-49
2021/03/13 02:37:24;;;;;;;2.22;0.52;;;;;;;22.07;43.94;97474.25;5012055;28;20189;-45
2021/03/13 02:39:52;;;;;;;1.90;0.63;;;;;;;22.08;44.40;97477.72;5012131;28;20713;-49
2021/03/13 02:42:19;;;;;;;1.20;0.47;;;;;;;22.07;43.59;97478.75;5011823;28;20581;-47
2021/03/13 02:44:48;;;;;;;1.13;0.50;;;;;;;22.04;44.29;97471.94;5011998;28;20719;-56
2021/03/13 02:47:16;;;;;;;1.88;0.55;;;;;;;22.04;44.28;97463.94;5011469;28;20215;-49
2021/03/13 02:49:45;;;;;;;1.17;0.50;;;;;;;22.03;44.58;97462.28;5011606;28;20633;-48
2021/03/13 02:52:12;;;;;;;0.80;0.35;;;;;;;22.02;44.21;97460.66;5011641;28;20296;-46
2021/03/13 02:54:44;;;;;;;5.35;0.57;;;;;;;22.02;44.05;97449.19;5012013;28;20265;-50
2021/03/13 02:57:13;;;;;;;0.70;0.32;;;;;;;22.01;44.22;97448.34;5011715;28;20256;-55
2021/03/13 02:59:40;;;;;;;1.10;0.57;;;;;;;22.00;43.89;97454.69;5010967;28;20211;-51
2021/03/13 03:02:09;;;;;;;0.82;0.57;;;;;;;21.99;43.87;97453.84;5010870;28;20663;-50
2021/03/13 03:04:37;;;;;;;0.80;0.47;;;;;;;22.00;44.02;97452.03;5010733;28;20283;-45
2021/03/13 03:07:04;;;;;;;0.40;0.30;;;;;;;21.97;44.39;97441.75;5011127;28;20295;-48
2021/03/13 03:09:31;;;;;;;1.05;0.45;;;;;;;21.96;44.08;97440.06;5011235;28;20251;-48
2021/03/13 03:11:58;;;;;;;1.20;0.40;;;;;;;21.97;43.18;97447.06;5011097;28;20201;-52
2021/03/13 03:14:26;;;;;;;0.70;0.50;;;;;;;21.97;43.80;97439.91;5010702;28;20212;-51
2021/03/13 03:16:56;;;;;;;0.82;0.30;;;;;;;21.97;43.78;97436.41;5010979;28;20228;-54
2021/03/13 03:19:25;;;;;;;0.95;0.60;;;;;;;21.96;43.60;97440.06;5010696;28;20235;-49
2021/03/13 03:21:51;;;;;;;2.13;0.63;;;;;;;21.93;43.88;97435.97;5012593;28;20307;-51
2021/03/13 03:24:19;;;;;;;1.27;0.40;;;;;;;21.94;44.05;97436.78;5014901;28;20295;-48
2021/03/13 03:26:45;;;;;;;1.23;0.40;;;;;;;21.94;44.08;97426.13;5014866;28;20316;-52
2021/03/13 03:29:12;;;;;;;1.75;0.40;;;;;;;21.93;44.51;97433.31;5014526;28;20299;-50
2021/03/13 03:31:38;;;;;;;1.08;0.50;;;;;;;21.92;43.77;97422.84;5014793;28;20360;-52
2021/03/13 03:34:05;;;;;;;1.13;0.45;;;;;;;21.89;43.31;97418.69;5014453;28;20777;-49
2021/03/13 03:36:32;;;;;;;0.65;0.40;;;;;;;21.90;43.47;97424.81;5014348;28;20355;-51
2021/03/13 03:38:59;;;;;;;2.00;0.40;;;;;;;21.89;43.69;97420.53;5014780;28;20237;-53
2021/03/13 03:41:28;;;;;;;1.95;0.65;;;;;;;21.89;44.14;97425.84;5014380;28;20291;-49
2021/03/13 03:44:00;;;;;;;1.38;0.50;;;;;;;21.89;44.16;97429.34;5014578;28;20228;-50
2021/03/13 03:46:27;;;;;;;0.65;0.50;;;;;;;21.87;43.35;97422.56;5014224;28;20311;-48
2021/03/13 03:48:55;;;;;;;1.83;0.65;;;;;;;21.90;44.30;97419.50;5014593;28;20374;-50
2021/03/13 03:51:26;;;;;;;1.00;0.40;;;;;;;21.87;42.89;97414.56;5014440;28;20211;-47
2021/03/13 03:53:53;;;;;;;0.85;0.55;;;;;;;21.87;44.25;97414.56;5014381;28;20346;-50
2021/03/13 03:56:22;;;;;;;0.70;0.40;;;;;;;21.86;44.19;97419.06;5013913;28;20220;-47
2021/03/13 03:58:49;;;;;;;2.63;0.60;;;;;;;21.87;43.77;97410.06;5013848;28;20213;-43
2021/03/13 04:01:17;;;;;;;0.50;0.38;;;;;;;21.84;43.66;97415.75;5014160;28;20307;-47
2021/03/13 04:03:47;;;;;;;0.75;0.50;;;;;;;21.83;44.07;97416.75;5014969;28;20266;-46
2021/03/13 04:06:14;;;;;;;1.30;0.50;;;;;;;21.84;44.41;97412.28;5014625;28;20714;-44
2021/03/13 04:08:43;;;;;;;0.90;0.40;;;;;;;21.82;44.71;97412.44;5014622;28;20237;-51
2021/03/13 04:11:12;;;;;;;1.00;0.40;;;;;;;21.81;43.67;97398.31;5014139;28;20295;-44
2021/03/13 04:13:39;;;;;;;1.58;0.60;;;;;;;21.81;43.77;97411.59;5014365;28;20211;-51
2021/03/13 04:16:06;;;;;;;3.05;0.82;;;;;;;21.81;43.98;97405.47;5013663;28;20234;-60
2021/03/13 04:18:32;;;;;;;1.25;0.50;;;;;;;21.84;44.78;97413.09;5014211;28;20304;-49
2021/03/13 04:20:59;;;;;;;0.73;0.40;;;;;;;21.81;43.59;97411.59;5014700;28;20242;-48
2021/03/13 04:23:26;;;;;;;0.60;0.47;;;;;;;21.79;43.38;97410.97;5014393;28;20213;-45
2021/03/13 04:25:54;;;;;;;1.08;0.50;;;;;;;21.80;44.24;97409.16;5014755;28;20660;-44
2021/03/13 04:28:22;;;;;;;2.00;0.43;;;;;;;21.78;44.55;97404.00;5014274;28;20208;-49
2021/03/13 04:30:48;;;;;;;1.17;0.50;;;;;;;21.79;43.50;97408.31;5013510;28;20211;-49
2021/03/13 04:33:16;;;;;;;0.80;0.43;;;;;;;21.80;43.59;97409.16;5013403;28;20760;-44
2021/03/13 04:35:43;;;;;;;0.88;0.45;;;;;;;21.80;43.69;97395.84;5013352;28;20319;-47
2021/03/13 04:38:11;;;;;;;1.27;0.40;;;;;;;21.77;43.78;97393.56;5013779;28;20293;-49
2021/03/13 04:40:37;;;;;;;2.85;0.57;;;;;;;21.77;43.80;97389.03;5012883;28;20299;-42
2021/03/13 04:43:04;;;;;;;1.02;0.43;;;;;;;21.75;44.09;97388.41;5013664;28;20379;-48
2021/03/13 04:45:32;;;;;;;2.35;0.70;;;;;;;21.83;44.05;97398.13;5012842;28;20319;-47
2021/03/13 04:48:01;;;;;;;0.73;0.40;;;;;;;21.80;43.96;97388.69;5013157;28;20201;-53
2021/03/13 04:50:27;;;;;;;1.15;0.50;;;;;;;21.79;44.59;97371.06;5013113;28;20291;-48
2021/03/13 04:52:53;;;;;;;3.85;0.40;;;;;;;21.85;43.76;97374.00;5013108;28;20295;-54
2021/03/13 04:55:19;;;;;;;2.03;0.60;;;;;;;21.87;44.97;97387.97;5013459;28;20227;-51
2021/03/13 04:57:46;;;;;;;1.08;0.50;;;;;;;21.87;44.47;97390.63;5013433;28;20232;-54
2021/03/13 05:00:15;;;;;;;1.88;0.65;;;;;;;21.84;44.34;97383.00;5013429;28;20212;-48
2021/03/13 05:02:42;;;;;;;1.20;0.50;;;;;;;21.84;44.42;97378.50;5013264;28;20205;-49
2021/03/13 05:05:10;;;;;;;4.47;0.40;;;;;;;21.81;44.85;97371.69;5013197;28;20264;-44
2021/03/13 05:07:36;;;;;;;1.92;0.40;;;;;;;21.81;44.28;97354.91;5013088;28;20327;-43
2021/03/13 05:10:03;;;;;;;2.15;0.60;;;;;;;21.81;43.77;97374.34;5013048;28;20234;-49
2021/03/13 05:12:29;;;;;;;4.25;0.50;;;;;;;21.86;44.60;97362.34;5012849;28;20295;-48
2021/03/13 05:14:55;;;;;;;1.58;0.60;;;;;;;21.80;43.94;97359.41;5012622;28;20536;-49
2021/03/13 05:17:21;;;;;;;3.15;0.82;;;;;;;21.82;44.15;97348.59;5013073;28;20300;-46
2021/03/13 05:19:48;;;;;;;4.45;0.60;;;;;;;21.84;44.61;97353.75;5012733;28;20716;-54
2021/03/13 05:22:14;;;;;;;2.28;0.70;;;;;;;21.84;44.24;97354.56;5013160;28;20544;-47
2021/03/13 05:24:40;;;;;;;1.35;0.47;;;;;;;21.88;44.55;97352.34;5012686;28;20316;-48
2021/03/13 05:27:07;;;;;;;1.52;0.40;;;;;;;21.92;44.05;97345.66;5012451;28;20295;-50
2021/03/13 05:29:33;;;;;;;1.67;0.50;;;;;;;21.93;44.14;97347.31;5012745;28;20296;-47
2021/03/13 05:31:59;;;;;;;4.10;0.77;;;;;;;21.95;44.51;97342.66;5012689;28;20295;-47
2021/03/13 05:34:26;;;;;;;1.77;0.50;;;;;;;21.93;44.00;97352.63;5012057;28;20743;-46
2021/03/13 05:36:53;;;;;;;1.17;0.50;;;;;;;21.92;44.23;97348.34;5012366;28;20237;-48
2021/03/13 05:39:19;;;;;;;0.70;0.50;;;;;;;21.92;43.59;97340.34;5012831;28;20208;-47
2021/03/13 05:41:47;;;;;;;1.17;0.50;;;;;;;21.93;44.31;97331.34;5012291;28;20205;-52
2021/03/13 05:44:13;;;;;;;2.72;0.55;;;;;;;21.92;43.62;97333.19;5011569;28;20208;-46
2021/03/13 05:46:43;;;;;;;1.70;0.47;;;;;;;21.93;44.37;97334.00;5011905;28;20228;-47
2021/03/13 05:49:10;;;;;;;1.15;0.70;;;;;;;21.94;43.57;97333.00;5012387;28;20200;-47
2021/03/13 05:51:38;;;;;;;1.55;0.50;;;;;;;21.94;43.69;97341.81;5012344;28;20201;-48
2021/03/13 05:54:07;;;;;;;0.73;0.55;;;;;;;21.94;43.42;97340.97;5011967;28;20651;-50
2021/03/13 05:56:33;;;;;;;2.30;0.55;;;;;;;21.96;43.98;97329.13;5011812;28;20227;-49
2021/03/13 05:59:00;;;;;;;2.85;0.55;;;;;;;21.93;43.90;97318.03;5012048;28;20240;-51
2021/03/13 06:01:28;;;;;;;1.25;0.57;;;;;;;21.93;43.47;97318.88;5011832;28;20207;-49
2021/03/13 06:03:54;;;;;;;0.75;0.50;;;;;;;21.91;43.85;97315.56;5012029;28;20212;-46
2021/03/13 06:06:22;;;;;;;1.55;0.50;;;;;;;21.92;43.25;97293.28;5012024;28;20311;-51
2021/03/13 06:08:49;;;;;;;1.45;0.50;;;;;;;21.92;43.14;97279.16;5012328;28;20321;-45
2021/03/13 06:11:17;;;;;;;1.10;0.50;;;;;;;21.92;43.88;97295.13;5011704;28;20252;-51
2021/03/13 06:13:43;;;;;;;0.60;0.40;;;;;;;21.91;43.18;97294.28;5011549;28;20615;-47
2021/03/13 06:16:10;;;;;;;1.23;0.60;;;;;;;21.96;43.45;97293.72;5011436;28;20233;-44
2021/03/13 06:18:53;;;;;;;1.35;0.50;;;;;;;21.95;43.35;97300.06;5011635;28;20265;-48
2021/03/13 06:21:21;;;;;;;1.05;0.60;;;;;;;21.96;43.23;97296.38;5011411;28;20303;-46
2021/03/13 06:23:47;;;;;;;1.77;0.50;;;;;;;21.98;43.15;97294.34;5011537;28;20275;-52
2021/03/13 06:26:14;;;;;;;2.97;0.70;;;;;;;21.95;42.80;97284.09;5011511;28;20224;-45
2021/03/13 06:28:40;;;;;;;0.98;0.32;;;;;;;21.94;43.24;97287.75;5011332;28;20291;-48
2021/03/13 06:31:12;;;;;;;1.25;0.50;;;;;;;21.95;42.81;97282.25;5011368;28;20215;-46
2021/03/13 06:33:38;;;;;;;1.92;0.73;;;;;;;21.94;42.94;97299.22;5011181;28;20246;-47
2021/03/13 06:36:06;;;;;;;1.50;0.40;;;;;;;22.01;42.65;97280.69;5011413;28;20252;-42
2021/03/13 06:38:34;;;;;;;4.13;0.40;;;;;;;22.26;42.53;97288.34;5012255;28;20747;-57
2021/03/13 06:41:11;;;;;;;0.90;0.32;;;;;;;22.44;42.55;97280.81;5013442;28;20624;-54
2021/03/13 06:43:39;;;;;;;7.95;0.50;;;;;;;22.60;42.00;97290.41;5012532;28;20215;-58
2021/03/13 06:46:07;;;;;;;2.95;0.50;;;;;;;22.73;41.87;97271.88;5011664;28;20252;-59
2021/03/13 06:48:37;;;;;;;1.52;0.60;;;;;;;22.84;42.15;97272.38;5011485;28;20240;-53
2021/03/13 06:51:18;;;;;;;5.47;0.65;;;;;;;22.94;41.72;97262.22;5011987;28;20333;-53
2021/03/13 06:53:46;;;;;;;5.90;0.73;;;;;;;22.97;42.25;97253.03;5011621;28;20327;-60
2021/03/13 06:56:13;;;;;;;5.53;0.60;;;;;;;22.97;41.21;97239.72;5011360;28;20224;-58
2021/03/13 06:58:40;;;;;;;19.58;1.40;;;;;;;22.99;41.63;97243.81;5012024;28;20258;-56
2021/03/13 07:01:09;;;;;;;7.28;1.35;;;;;;;22.99;42.87;97237.66;5011623;28;20228;-57
2021/03/13 07:03:48;;;;;;;3.72;0.70;;;;;;;23.01;42.00;97232.97;5010927;28;20295;-49
2021/03/13 07:06:16;;;;;;;8.70;0.85;;;;;;;23.02;41.73;97232.78;5011226;28;20259;-55
2021/03/13 07:08:44;;;;;;;3.80;0.63;;;;;;;23.04;41.11;97235.25;5010957;28;20212;-54
2021/03/13 07:11:15;;;;;;;3.42;0.90;;;;;;;23.04;40.46;97249.38;5011408;28;20212;-51
2021/03/13 07:13:43;;;;;;;3.70;0.85;;;;;;;23.06;41.13;97219.88;5011109;28;20240;-54
2021/03/13 07:16:27;;;;;;;4.47;0.70;;;;;;;23.05;41.10;97220.91;5011299;28;20731;-53
2021/03/13 07:18:55;;;;;;;4.75;0.55;;;;;;;23.04;41.52;97224.59;5011046;28;20192;-53
2021/03/13 07:21:22;;;;;;;5.15;0.98;;;;;;;23.03;41.10;97212.25;5011154;28;20216;-54
2021/03/13 07:23:58;;;;;;;0.90;0.68;;;;;;;23.02;41.62;97215.97;5011114;28;20204;-51
2021/03/13 07:26:26;;;;;;;5.78;0.65;;;;;;;23.01;41.33;97214.31;5010788;28;20224;-56
2021/03/13 07:28:57;;;;;;;2.22;0.70;;;;;;;23.01;41.54;97207.13;5010954;28;20526;-54
2021/03/13 07:31:26;;;;;;;1.77;0.50;;;;;;;23.04;40.79;97193.41;5011049;28;20203;-51
2021/03/13 07:33:54;;;;;;;2.25;0.40;;;;;;;23.04;41.54;97204.06;5011350;28;20258;-51
2021/03/13 07:36:22;;;;;;;3.58;0.50;;;;;;;23.05;41.75;97180.94;5011167;28;20319;-54
2021/03/13 07:38:51;;;;;;;9.30;0.60;;;;;;;23.04;43.14;97189.94;5011142;28;20648;-56
2021/03/13 07:41:18;;;;;;;2.67;0.57;;;;;;;23.04;43.35;97195.25;5011522;28;20239;-56
2021/03/13 07:43:46;;;;;;;11.32;1.17;;;;;;;23.02;42.25;97192.78;5011904;28;20228;-57
2021/03/13 07:46:12;;;;;;;4.60;0.65;;;;;;;23.09;42.74;97200.84;5011533;28;20316;-55
2021/03/13 07:48:40;;;;;;;3.22;0.70;;;;;;;23.13;43.69;97199.44;5011321;28;20386;-52
2021/03/13 07:51:08;;;;;;;5.78;0.90;;;;;;;23.18;42.64;97183.72;5011527;28;20642;-52
2021/03/13 07:53:38;;;;;;;5.18;0.77;;;;;;;23.24;42.92;97180.25;5010920;28;20251;-43
2021/03/13 07:56:08;;;;;;;2.25;0.45;;;;;;;23.30;43.43;97185.81;5011133;28;20233;-52
2021/03/13 07:58:38;;;;;;;3.15;0.47;;;;;;;23.34;43.46;97181.75;5011787;28;20197;-48
2021/03/13 08:01:05;;;;;;;2.63;0.68;;;;;;;23.35;44.41;97180.69;5011165;28;20216;-50
2021/03/13 08:03:45;;;;;;;4.60;0.80;;;;;;;23.36;44.51;97180.50;5011419;28;20259;-61
2021/03/13 08:06:13;;;;;;;5.07;0.77;;;;;;;23.37;43.08;97173.34;5011469;28;20354;-54
2021/03/13 08:08:41;;;;;;;5.70;0.90;;;;;;;23.35;43.38;97167.38;5013231;28;20205;-55
2021/03/13 08:11:09;;;;;;;6.38;0.95;;;;;;;23.32;42.55;97162.47;5014935;28;20743;-57
2021/03/13 08:13:52;;;;;;;4.55;0.90;;;;;;;23.31;43.00;97168.78;5014685;28;20647;-53
2021/03/13 08:16:31;;;;;;;13.13;0.93;;;;;;;23.32;42.98;97167.78;5014232;28;20224;-56
2021/03/13 08:18:59;;;;;;;4.50;0.90;;;;;;;23.30;42.91;97156.47;5014061;28;20287;-57
2021/03/13 08:21:44;;;;;;;7.25;1.38;;;;;;;23.24;42.99;97137.56;5013792;28;20682;-58
2021/03/13 08:24:13;;;;;;;11.55;0.93;;;;;;;23.27;42.63;97123.84;5014105;28;20209;-49
2021/03/13 08:27:06;;;;;;;8.88;1.05;;;;;;;23.20;43.03;97124.84;5013896;28;20281;-60
2021/03/13 08:29:50;;;;;;;4.32;0.90;;;;;;;23.24;42.72;97128.75;5014263;28;20279;-59
2021/03/13 08:32:18;;;;;;;4.60;1.40;;;;;;;23.22;42.38;97109.47;5013811;28;20291;-54
2021/03/13 08:34:45;;;;;;;8.90;1.08;;;;;;;23.21;42.62;97108.63;5013355;28;20223;-57
2021/03/13 08:37:21;;;;;;;10.18;0.80;;;;;;;23.22;41.79;97112.97;5013397;28;20213;-58
2021/03/13 08:39:47;;;;;;;5.75;0.88;;;;;;;23.19;42.28;97099.22;5013392;28;20185;-53
2021/03/13 08:42:32;;;;;;;2.35;0.65;;;;;;;23.21;42.92;97113.97;5013255;28;20296;-55
2021/03/13 08:45:13;;;;;;;9.63;1.10;;;;;;;23.22;43.15;97110.28;5013391;28;20772;-55
2021/03/13 08:47:44;;;;;;;7.93;1.13;;;;;;;23.32;43.42;97117.94;5012828;28;20850;-54
2021/03/13 08:50:11;;;;;;;4.38;0.90;;;;;;;23.34;42.63;97118.56;5013536;28;20322;-52
2021/03/13 08:52:38;;;;;;;9.07;1.40;;;;;;;23.38;43.42;97102.97;5013541;28;20304;-49
2021/03/13 08:55:05;;;;;;;9.93;1.27;;;;;;;23.41;43.47;97083.91;5013363;28;20256;-51
2021/03/13 08:57:44;;;;;;;11.73;1.10;;;;;;;23.46;42.54;97078.81;5013132;28;20240;-53
2021/03/13 09:00:15;;;;;;;7.10;1.65;;;;;;;23.50;43.55;97076.56;5012994;28;20204;-54
2021/03/13 09:02:41;;;;;;;7.82;1.27;;;;;;;23.53;43.63;97066.31;5013451;28;20200;-54
2021/03/13 09:05:10;;;;;;;2.83;0.85;;;;;;;23.54;42.74;97067.94;5013021;28;20286;-52
2021/03/13 09:07:38;;;;;;;8.68;1.55;;;;;;;23.56;42.22;97071.22;5012572;28;20232;-57
2021/03/13 09:10:06;;;;;;;6.45;1.00;;;;;;;23.56;42.14;97055.22;5012943;28;20208;-53
2021/03/13 09:12:34;;;;;;;4.80;1.00;;;;;;;23.56;42.55;97052.56;5012944;28;20688;-55
2021/03/13 09:15:02;;;;;;;10.32;1.00;;;;;;;23.56;42.82;97044.56;5013391;28;20727;-50
2021/03/13 09:17:30;;;;;;;2.42;0.70;;;;;;;23.54;41.67;97059.94;5013305;28;20284;-51
2021/03/13 09:20:00;;;;;;;3.08;0.73;;;;;;;23.54;41.60;97027.13;5013223;28;20292;-56
2021/03/13 09:22:27;;;;;;;3.75;0.60;;;;;;;23.56;42.62;97025.06;5012909;28;20201;-55
2021/03/13 09:24:56;;;;;;;5.13;1.00;;;;;;;23.55;42.32;96997.59;5012964;28;20295;-56
2021/03/13 09:27:27;;;;;;;4.55;0.80;;;;;;;23.52;41.40;97007.84;5012944;28;20208;-57
2021/03/13 09:29:54;;;;;;;8.55;0.88;;;;;;;23.46;41.40;97025.47;5012975;28;20588;-57
2021/03/13 09:32:22;;;;;;;5.93;1.02;;;;;;;23.45;42.01;97021.16;5013253;28;20675;-55
2021/03/13 09:34:53;;;;;;;28.02;1.30;;;;;;;23.48;41.64;97003.91;5013130;28;20330;-53
2021/03/13 09:37:21;;;;;;;9.80;0.80;;;;;;;23.46;40.79;97001.44;5013245;28;20388;-49
2021/03/13 09:39:49;;;;;;;5.40;0.93;;;;;;;23.42;41.90;97017.03;5012606;28;20316;-57
2021/03/13 09:42:17;;;;;;;5.50;0.90;;;;;;;23.43;41.10;97021.34;5013052;28;20236;-57
2021/03/13 09:44:46;;;;;;;5.78;1.27;;;;;;;23.41;41.51;97003.91;5012386;28;20231;-55
2021/03/13 09:47:22;;;;;;;3.80;1.15;;;;;;;23.39;40.02;96993.44;5012548;28;20673;-52
2021/03/13 09:49:52;;;;;;;16.52;1.55;;;;;;;23.38;41.37;97010.47;5012487;28;20192;-55
2021/03/13 09:52:25;;;;;;;6.57;0.93;;;;;;;23.37;40.44;96992.00;5012904;28;20292;-57
2021/03/13 09:54:59;;;;;;;13.10;1.17;;;;;;;23.38;40.29;97009.63;5012750;28;20275;-59
2021/03/13 09:57:30;;;;;;;8.90;0.85;;;;;;;23.38;40.70;96991.81;5012983;28;20571;-58
2021/03/13 09:59:57;;;;;;;11.95;0.88;;;;;;;23.38;39.94;96985.63;5012229;28;20193;-60
2021/03/13 10:02:23;;;;;;;8.38;1.27;;;;;;;23.35;40.58;96983.38;5012080;28;20314;-50
2021/03/13 10:04:53;;;;;;;6.53;0.82;;;;;;;23.36;39.50;96983.16;5012151;28;20663;-59
2021/03/13 10:07:20;;;;;;;9.15;1.13;;;;;;;23.36;40.16;96977.84;5012592;28;20248;-56
2021/03/13 10:09:54;;;;;;;14.30;0.70;;;;;;;23.41;40.01;96967.38;5012235;28;20208;-57
2021/03/13 10:12:25;;;;;;;8.93;0.95;;;;;;;23.40;40.57;96979.09;5012162;28;20628;-59
2021/03/13 10:14:52;;;;;;;12.15;0.82;;;;;;;23.42;39.90;96989.56;5012067;28;20248;-56
2021/03/13 10:17:18;;;;;;;2.05;0.73;;;;;;;23.42;39.90;96970.88;5011944;28;20296;-60
2021/03/13 10:19:45;;;;;;;4.32;0.80;;;;;;;23.43;40.30;96976.03;5012245;28;20267;-59
2021/03/13 10:22:14;;;;;;;4.25;0.80;;;;;;;23.45;40.68;96965.16;5012133;28;20235;-57
2021/03/13 10:24:51;;;;;;;4.55;0.77;;;;;;;23.43;41.10;96961.84;5011579;28;20201;-53
2021/03/13 10:27:26;;;;;;;8.10;0.77;;;;;;;23.43;40.91;96954.69;5011887;28;20185;-58
2021/03/13 10:29:57;;;;;;;6.00;1.10;;;;;;;23.44;40.93;96966.97;5011563;28;20227;-60
2021/03/13 10:32:29;;;;;;;5.75;0.90;;;;;;;23.38;41.25;96966.97;5011699;28;20271;-48
2021/03/13 10:35:27;;;;;;;8.95;1.08;;;;;;;23.27;40.57;96945.22;5011768;28;20217;-49
2021/03/13 10:37:56;;;;;;;4.20;0.90;;;;;;;23.34;40.15;96958.56;5011241;28;20224;-62
2021/03/13 10:40:35;;;;;;;8.60;1.20;;;;;;;23.39;40.53;96961.44;5011353;28;20216;-52
2021/03/13 10:43:25;;;;;;;7.78;0.90;;;;;;;23.34;40.06;96957.75;5011990;28;20313;-60
2021/03/13 10:46:13;;;;;;;8.20;0.88;;;;;;;23.34;39.92;96939.06;5011227;28;20235;-56
2021/03/13 10:49:00;;;;;;;4.00;0.50;;;;;;;23.32;39.57;96933.94;5011195;28;20193;-49
2021/03/13 10:51:27;;;;;;;8.98;0.90;;;;;;;23.32;39.95;96949.13;5011385;28;20204;-51
2021/03/13 10:53:55;;;;;;;10.25;1.00;;;;;;;23.14;38.80;96958.50;5011143;28;20311;-53
2021/03/13 10:56:21;;;;;;;11.68;0.93;;;;;;;22.91;35.68;96943.66;5011619;28;20217;-51
2021/03/13 10:58:49;;;;;;;26.98;1.15;;;;;;;22.80;33.70;96970.88;5011455;28;20290;-52
2021/03/13 11:01:16;;;;;;;9.55;1.13;;;;;;;;;;5011518;28;20204;-52
2021/03/13 11:03:43;;;;;;;6.60;1.63;;;;;;;22.41;35.93;96966.97;5011179;28;20664;-47
2021/03/13 11:06:10;;;;;;;9.32;1.13;;;;;;;22.54;36.07;96931.63;5010981;28;20755;-47
2021/03/13 11:08:36;;;;;;;9.32;1.45;;;;;;;22.62;37.54;96920.78;5011610;28;20288;-55
2021/03/13 11:11:03;;;;;;;14.70;0.95;;;;;;;22.66;36.97;96947.84;5011671;28;20247;-57
2021/03/13 11:13:29;;;;;;;14.73;1.08;;;;;;;22.74;37.82;96921.03;5011555;28;20299;-53
2021/03/13 11:15:55;;;;;;;9.40;0.95;;;;;;;22.81;37.54;96937.88;5011321;28;20771;-53
2021/03/13 11:18:22;;;;;;;7.90;1.15;;;;;;;22.91;38.47;96940.16;5011471;28;20284;-60
2021/03/13 11:20:49;;;;;;;6.80;0.98;;;;;;;23.00;38.33;96919.47;5011551;28;20234;-58
2021/03/13 11:23:16;;;;;;;5.32;0.88;;;;;;;23.05;38.45;96922.38;5011791;28;20602;-55
2021/03/13 11:25:42;;;;;;;10.90;1.08;;;;;;;23.09;39.24;96950.28;5010925;28;20236;-61
2021/03/13 11:28:09;;;;;;;5.72;0.80;;;;;;;23.12;38.61;96939.22;5011036;28;20323;-59
2021/03/13 11:30:36;;;;;;;17.02;1.75;;;;;;;23.07;38.58;96933.69;5010900;28;20212;-60
2021/03/13 11:33:02;;;;;;;9.70;1.00;;;;;;;23.08;39.43;96924.66;5010872;28;20311;-55
2021/03/13 11:35:29;;;;;;;16.20;1.77;;;;;;;23.14;39.15;96920.38;5011011;28;20275;-59
2021/03/13 11:37:56;;;;;;;13.73;1.58;;;;;;;23.18;40.26;96938.44;5011131;28;20220;-56
2021/03/13 11:40:23;;;;;;;14.80;1.75;;;;;;;23.15;39.57;96930.00;5011375;28;20212;-58
2021/03/13 11:42:51;;;;;;;9.68;1.10;;;;;;;23.09;39.09;96939.63;5012634;28;20295;-57